Time;durP1;ratioP1;P1;durP2;ratioP2;P2;SDS_P1;SDS_P2;PMS_P1;PMS_P2;Temp;Humidity;BMP_temperature;BMP_pressure;BME280_temperature;BME280_humidity;BME280_pressure;Samples;Min_cycle;Max_cycle;Signal;HPM_P1;HPM_P2
2022/12/21 00:00:03;;;;;;;81.00;33.67;;;7.70;99.90;;;6.17;100.00;100581.47;5045411;28;20135;-79
2022/12/21 00:02:32;;;;;;;70.95;32.22;;;7.70;99.90;;;6.21;100.00;100584.84;5047099;28;20025;-80
2022/12/21 00:04:58;;;;;;;78.43;32.53;;;7.70;99.90;;;6.23;100.00;100567.34;5027926;28;20028;-80
2022/12/21 00:07:31;;;;;;;65.80;30.90;;;7.70;99.90;;;6.21;100.00;100562.16;5010110;28;20604;-80
2022/12/21 00:09:57;;;;;;;72.85;32.30;;;7.70;99.90;;;6.23;100.00;100569.97;5044056;28;20440;-79
2022/12/21 00:12:23;;;;;;;74.72;31.92;;;7.70;99.90;;;6.21;100.00;100564.78;5045111;28;20032;-80
2022/12/21 00:14:50;;;;;;;74.70;32.17;;;7.70;99.90;;;6.25;100.00;100561.16;5044761;28;20072;-79
2022/12/21 00:17:21;;;;;;;75.15;32.13;;;7.70;99.90;;;6.24;100.00;100567.31;5027646;28;20064;-80
2022/12/21 00:19:47;;;;;;;77.53;33.50;;;7.80;99.90;;;6.24;100.00;100563.81;5026981;28;20033;-79
2022/12/21 00:22:12;;;;;;;70.93;32.50;;;7.80;99.90;;;6.27;100.00;100569.81;5026846;28;20108;-80
2022/12/21 00:24:38;;;;;;;74.75;32.60;;;7.80;99.90;;;6.27;100.00;100566.34;5044214;28;20097;-80
2022/12/21 00:27:04;;;;;;;75.00;34.05;;;7.70;99.90;;;6.26;100.00;100557.63;5028782;28;20047;-80
2022/12/21 00:29:30;;;;;;;71.65;34.45;;;7.80;99.90;;;6.26;100.00;100559.41;5026564;28;20440;-79
2022/12/21 00:32:00;;;;;;;77.57;34.65;;;7.80;99.90;;;6.26;100.00;100565.47;5025966;28;20151;-80
2022/12/21 00:34:26;;;;;;;84.45;36.00;;;7.80;99.90;;;6.24;100.00;100564.69;5046808;28;20041;-80
2022/12/21 00:36:52;;;;;;;84.68;35.85;;;7.80;99.90;;;6.24;100.00;100558.59;5048382;28;20036;-79
2022/12/21 00:39:18;;;;;;;92.78;37.72;;;7.80;99.90;;;6.26;100.00;100564.63;5045756;28;20039;-80
2022/12/21 00:41:44;;;;;;;96.30;39.17;;;7.80;99.90;;;6.26;100.00;100555.03;5044301;28;20025;-78
2022/12/21 00:44:10;;;;;;;104.35;39.95;;;7.80;99.90;;;6.29;100.00;100556.72;5027448;28;20323;-80
2022/12/21 00:46:45;;;;;;;108.60;40.45;;;7.80;99.90;;;6.32;100.00;100560.06;5043061;28;20037;-80
2022/12/21 00:49:11;;;;;;;92.25;38.80;;;7.80;99.90;;;6.33;100.00;100558.31;5028898;28;20070;-80
2022/12/21 00:51:37;;;;;;;113.22;40.92;;;7.80;99.90;;;6.31;100.00;100547.91;5046111;28;20041;-79
2022/12/21 00:54:07;;;;;;;113.20;42.72;;;7.80;99.90;;;6.32;100.00;100544.38;5017472;23;20034;-80
2022/12/21 00:56:33;;;;;;;131.02;42.28;;;7.90;99.90;;;6.34;100.00;100545.19;4993733;28;20273;-80
2022/12/21 00:58:59;;;;;;;131.32;43.63;;;7.90;99.90;;;6.36;100.00;100546.00;4987919;28;20041;-80
2022/12/21 01:01:30;;;;;;;124.15;43.45;;;7.90;99.90;;;6.37;100.00;100541.59;4995248;28;20033;-78
2022/12/21 01:04:03;;;;;;;121.75;43.25;;;7.80;99.90;;;6.38;100.00;100538.09;4971731;28;20491;-80
2022/12/21 01:06:44;;;;;;;133.85;45.47;;;7.90;99.90;;;6.41;100.00;100543.22;5001276;28;20035;-79
2022/12/21 01:09:10;;;;;;;134.20;45.22;;;7.90;99.90;;;6.42;100.00;100551.94;4997692;28;20466;-80
2022/12/21 01:11:36;;;;;;;114.93;43.22;;;7.90;99.90;;;6.42;100.00;100541.47;4999093;28;20483;-78
2022/12/21 01:14:02;;;;;;;129.18;45.22;;;7.90;99.90;;;6.42;100.00;100542.34;5002503;28;20029;-80
2022/12/21 01:16:34;;;;;;;135.45;46.33;;;7.90;99.90;;;6.42;100.00;100538.88;4987511;28;20029;-80
2022/12/21 01:19:03;;;;;;;126.80;45.15;;;7.90;99.90;;;6.44;100.00;100544.91;4999853;28;20105;-80
2022/12/21 01:21:39;;;;;;;152.23;48.13;;;7.90;99.90;;;6.44;100.00;100556.22;4999354;28;20030;-78
2022/12/21 01:24:06;;;;;;;142.15;46.60;;;7.90;99.90;;;6.43;100.00;100548.41;5001341;28;20052;-78
2022/12/21 01:26:31;;;;;;;161.07;48.65;;;7.90;99.90;;;6.44;100.00;100555.38;5002966;28;20038;-80
2022/12/21 01:28:57;;;;;;;140.90;47.80;;;7.90;99.90;;;6.43;100.00;100558.88;4969159;28;20121;-80
2022/12/21 01:31:32;;;;;;;166.00;49.13;;;7.90;99.90;;;6.42;100.00;100558.03;4999415;28;20581;-81
2022/12/21 01:33:58;;;;;;;154.15;47.67;;;7.90;99.90;;;6.45;100.00;100557.91;5025138;23;20049;-78
2022/12/21 01:36:23;;;;;;;146.77;47.65;;;7.90;99.90;;;6.43;100.00;100548.41;5043310;28;20116;-80
2022/12/21 01:38:49;;;;;;;156.07;47.88;;;7.90;99.90;;;6.42;100.00;100554.56;5043262;28;20089;-80
2022/12/21 01:41:27;;;;;;;161.45;46.80;;;7.90;99.90;;;6.41;100.00;100553.69;5027422;28;20049;-79
2022/12/21 01:44:04;;;;;;;150.38;47.33;;;7.90;99.90;;;6.39;100.00;100552.03;5020175;28;20375;-80
2022/12/21 01:46:45;;;;;;;156.63;49.60;;;7.90;99.90;;;6.42;100.00;100551.94;5023306;28;20021;-80
2022/12/21 01:49:37;;;;;;;132.15;44.55;;;7.90;99.90;;;6.38;100.00;100547.72;5007452;28;20045;-80
2022/12/21 01:52:09;;;;;;;134.13;44.58;;;7.90;99.90;;;6.38;100.00;100545.94;5022198;28;20104;-80
2022/12/21 01:54:46;;;;;;;142.60;44.13;;;7.90;99.90;;;6.39;100.00;100538.94;5013143;28;20540;-79
2022/12/21 01:57:13;;;;;;;131.32;42.88;;;7.90;99.90;;;6.38;100.00;100539.88;4989549;28;20098;-80
2022/12/21 01:59:46;;;;;;;144.98;44.33;;;7.90;99.90;;;6.36;100.00;100538.13;4991508;28;20783;-79
2022/12/21 02:02:25;;;;;;;146.27;46.35;;;7.90;99.90;;;6.36;100.00;100537.28;5006828;28;20068;-79
2022/12/21 02:04:52;;;;;;;141.27;45.58;;;7.90;99.90;;;6.34;100.00;100539.94;5023024;28;20029;-80
2022/12/21 02:07:21;;;;;;;134.65;44.10;;;7.80;99.90;;;6.33;100.00;100540.03;5006108;28;20029;-80
2022/12/21 02:09:55;;;;;;;132.48;44.38;;;7.80;99.90;;;6.30;100.00;100540.94;5037991;28;20037;-79
2022/12/21 02:12:22;;;;;;;136.23;44.88;;;7.80;99.90;;;6.30;100.00;100530.50;5007395;28;20085;-80
2022/12/21 02:14:48;;;;;;;137.70;45.00;;;7.80;99.90;;;6.30;100.00;100527.88;5007777;28;20034;-80
2022/12/21 02:17:58;;;;;;;151.68;47.05;;;7.80;99.90;;;6.28;100.00;100524.44;5005705;28;20460;-80
2022/12/21 02:20:39;;;;;;;142.57;46.50;;;7.80;99.90;;;6.28;100.00;100526.22;5022835;28;20107;-80
2022/12/21 02:23:53;;;;;;;151.50;47.33;;;7.80;99.90;;;6.24;100.00;100522.88;5021676;28;20972;-79
2022/12/21 02:27:00;;;;;;;144.63;45.88;;;7.80;99.90;;;6.23;100.00;100521.13;5024989;28;20037;-80
2022/12/21 02:30:02;;;;;;;156.87;47.40;;;7.70;99.90;;;6.21;100.00;100522.09;4997550;28;20054;-79
2022/12/21 02:32:57;;;;;;;165.20;46.83;;;7.70;99.90;;;6.20;100.00;100518.63;5021252;28;20041;-80
2022/12/21 02:36:09;;;;;;;166.52;49.13;;;7.70;99.90;;;6.16;100.00;100528.31;5024213;28;20116;-80
2022/12/21 02:39:14;;;;;;;173.77;49.60;;;7.70;99.90;;;6.15;100.00;100529.25;5006077;28;20029;-80
2022/12/21 02:44:12;;;;;;;175.07;51.50;;;7.70;99.90;;;6.13;100.00;100531.06;5024618;28;20048;-79
2022/12/21 02:44:57;;;;;;;180.10;50.40;;;7.70;99.90;;;6.12;100.00;100525.88;5020487;28;20038;-80
2022/12/21 02:47:36;;;;;;;172.63;51.03;;;7.60;99.90;;;6.12;100.00;100525.88;5004113;28;20027;-79
2022/12/21 02:50:11;;;;;;;186.25;52.22;;;7.60;99.90;;;6.11;100.00;100525.00;5007963;28;20029;-79
2022/12/21 02:53:03;;;;;;;195.25;52.90;;;7.60;99.90;;;6.12;100.00;100531.09;5005390;28;20506;-79
2022/12/21 02:55:29;;;;;;;220.30;55.10;;;7.60;99.90;;;6.11;100.00;100516.28;5036324;28;20029;-80
2022/12/21 02:58:17;;;;;;;203.75;54.38;;;7.60;99.90;;;6.09;100.00;100507.63;5021039;28;20152;-79
2022/12/21 03:01:23;;;;;;;182.50;52.95;;;7.60;99.90;;;6.08;100.00;100516.41;5022859;28;20029;-80
2022/12/21 03:04:01;;;;;;;216.50;54.35;;;7.60;99.90;;;6.08;100.00;100519.00;5007933;28;20044;-80
2022/12/21 03:06:56;;;;;;;227.25;55.92;;;;;;;6.08;100.00;100505.94;5037517;28;20036;-79
2022/12/21 03:09:51;;;;;;;205.48;53.22;;;7.60;99.90;;;6.09;100.00;100510.25;5013823;28;20048;-78
2022/12/21 03:12:29;;;;;;;226.50;55.72;;;7.60;99.90;;;6.06;100.00;100507.75;4967488;28;20095;-80
2022/12/21 03:15:24;;;;;;;189.23;51.47;;;7.60;99.90;;;6.07;100.00;100504.22;5021596;28;20026;-80
2022/12/21 03:17:59;;;;;;;192.15;51.95;;;7.60;99.90;;;6.09;100.00;100507.63;5016920;28;20032;-78
2022/12/21 03:20:53;;;;;;;232.48;56.17;;;7.50;99.90;;;6.10;100.00;100506.75;5036482;28;20113;-80
2022/12/21 03:23:50;;;;;;;200.10;52.05;;;7.60;99.90;;;6.07;100.00;100506.81;4981294;28;20038;-79
2022/12/21 03:26:45;;;;;;;190.77;58.92;;;7.60;99.90;;;6.09;100.00;100505.03;5018423;28;20045;-80
2022/12/21 03:29:17;;;;;;;181.35;51.35;;;7.60;99.90;;;6.11;100.00;100493.63;5006521;28;20056;-80
2022/12/21 03:31:54;;;;;;;176.55;52.05;;;7.60;99.90;;;6.12;100.00;100502.34;5020798;28;20080;-79
2022/12/21 03:34:27;;;;;;;194.32;52.95;;;7.60;99.90;;;6.14;100.00;100505.75;5002283;28;20037;-80
2022/12/21 03:37:28;;;;;;;158.68;49.28;;;7.60;99.90;;;6.12;100.00;100497.09;5005962;28;20494;-79
2022/12/21 03:40:18;;;;;;;168.82;49.67;;;7.60;99.90;;;6.12;100.00;100503.19;5020442;28;20026;-80
2022/12/21 03:42:53;;;;;;;159.63;49.47;;;7.60;99.90;;;6.13;100.00;100509.25;4991156;28;20057;-79
2022/12/21 03:45:30;;;;;;;164.38;49.97;;;7.60;99.90;;;6.15;100.00;100504.84;5003822;28;20128;-80
2022/12/21 03:48:15;;;;;;;177.82;50.78;;;7.60;99.90;;;6.15;100.00;100497.88;5006539;28;20022;-80
2022/12/21 03:50:46;;;;;;;167.88;50.38;;;7.60;99.90;;;6.18;100.00;100496.03;5007121;28;20030;-80
2022/12/21 03:53:53;;;;;;;165.77;50.78;;;7.70;99.90;;;6.18;100.00;100501.25;5005130;28;20021;-80
2022/12/21 03:56:34;;;;;;;158.82;47.75;;;7.60;99.90;;;6.16;100.00;100498.72;4949015;28;20031;-79
2022/12/21 03:59:01;;;;;;;153.70;50.22;;;7.60;99.90;;;6.14;100.00;100495.31;4948614;29;20043;-79
2022/12/21 04:01:53;;;;;;;165.18;50.03;;;7.60;99.90;;;6.16;100.00;100503.94;4992149;28;20133;-80
2022/12/21 04:04:55;;;;;;;153.05;48.40;;;7.60;99.90;;;6.15;100.00;100491.75;4998276;28;20123;-79
2022/12/21 04:07:25;;;;;;;181.57;50.50;;;7.60;99.90;;;6.14;100.00;100493.53;5020548;28;20038;-80
2022/12/21 04:09:59;;;;;;;178.43;51.22;;;7.60;99.90;;;6.14;100.00;100488.31;4986427;28;20034;-79
2022/12/21 04:12:36;;;;;;;141.60;46.75;;;7.60;99.90;;;6.16;100.00;100488.25;5020006;28;20055;-79
2022/12/21 04:15:12;;;;;;;166.65;49.10;;;7.70;99.90;;;6.15;100.00;100492.66;5005171;28;20064;-80
2022/12/21 04:17:40;;;;;;;172.50;49.13;;;7.60;99.90;;;6.16;100.00;100498.72;5021025;28;20034;-79
2022/12/21 04:20:18;;;;;;;171.60;49.30;;;7.60;99.90;;;6.14;100.00;100493.53;5002216;28;20038;-78
2022/12/21 04:28:24;;;;;;;186.32;52.03;;;7.60;99.90;;;6.11;100.00;100490.16;5006103;28;20512;-80
2022/12/21 04:30:50;;;;;;;207.07;53.70;;;7.60;99.90;;;6.09;100.00;100489.34;5023849;28;20645;-80
2022/12/21 04:33:22;;;;;;;249.10;58.05;;;7.60;99.90;;;6.07;100.00;100489.41;5025425;23;20124;-77
2022/12/21 04:38:36;;;;;;;254.73;56.97;;;7.50;99.90;;;6.01;100.00;100499.22;5006426;28;20092;-77
2022/12/21 04:41:03;;;;;;;240.43;56.25;;;7.50;99.90;;;5.98;100.00;100497.53;5020992;28;20122;-77
2022/12/21 04:43:29;;;;;;;229.13;55.55;;;7.50;99.90;;;5.95;100.00;100485.41;5019842;28;20080;-77
2022/12/21 04:46:07;;;;;;;245.63;56.38;;;8.10;99.90;;;5.98;100.00;100494.91;5019959;28;20113;-77
2022/12/21 04:48:34;;;;;;;239.93;57.83;;;7.50;99.90;;;5.98;100.00;100491.44;5019886;28;20068;-78
2022/12/21 04:51:10;;;;;;;233.18;55.58;;;7.50;99.90;;;5.97;100.00;100492.38;5020739;28;20549;-77
2022/12/21 04:53:36;;;;;;;209.80;54.07;;;7.40;99.90;;;5.92;100.00;100490.72;5036510;28;20041;-78
2022/12/21 04:56:02;;;;;;;221.50;54.58;;;7.40;99.90;;;5.92;100.00;100485.47;5020922;28;20284;-78
2022/12/21 04:58:28;;;;;;;166.85;49.85;;;7.40;99.90;;;5.90;100.00;100481.22;5014175;28;20034;-77
2022/12/21 05:00:54;;;;;;;177.05;49.90;;;7.40;99.90;;;5.89;100.00;100490.78;5018527;28;20076;-76
2022/12/21 05:03:20;;;;;;;193.93;52.30;;;7.40;99.90;;;5.88;100.00;100489.09;5016820;28;20128;-77
2022/12/21 05:05:47;;;;;;;197.95;52.53;;;7.40;99.90;;;5.88;100.00;100483.03;5003492;28;20096;-76
2022/12/21 05:08:13;;;;;;;179.77;50.72;;;7.40;99.90;;;5.92;100.00;100479.41;5001389;28;20037;-77
2022/12/21 05:10:42;;;;;;;227.90;54.10;;;7.40;99.90;;;5.91;100.00;100473.31;5013831;28;20112;-77
2022/12/21 05:13:07;;;;;;;246.40;56.28;;;7.40;99.90;;;5.95;100.00;100467.13;4999989;28;20041;-77
2022/12/21 05:15:38;;;;;;;275.30;58.60;;;7.40;99.90;;;5.96;100.00;100467.97;5019513;28;20033;-77
2022/12/21 05:18:04;;;;;;;283.30;58.78;;;7.40;99.90;;;5.95;100.00;100464.50;5018616;28;20033;-77
2022/12/21 05:20:32;;;;;;;247.95;56.63;;;7.40;99.90;;;5.99;100.00;100464.44;5000532;28;20449;-77
2022/12/21 05:22:58;;;;;;;199.63;51.40;;;7.40;99.90;;;6.02;100.00;100466.94;5000393;28;20029;-77
2022/12/21 05:25:24;;;;;;;277.08;56.20;;;7.40;99.90;;;6.03;100.00;100471.25;5015273;28;20040;-77
2022/12/21 05:27:50;;;;;;;215.57;53.03;;;7.40;99.90;;;6.01;100.00;100466.06;4999520;28;20115;-77
2022/12/21 05:30:16;;;;;;;222.75;53.42;;;7.40;99.90;;;5.95;100.00;100467.13;5037540;28;20116;-76
2022/12/21 05:32:42;;;;;;;272.60;57.25;;;7.40;99.90;;;5.94;100.00;100468.03;5020572;28;20046;-77
2022/12/21 05:35:11;;;;;;;197.75;51.55;;;7.40;99.90;;;5.90;100.00;100471.59;4995857;28;20122;-77
2022/12/21 05:37:36;;;;;;;189.63;51.17;;;7.40;99.90;;;5.91;100.00;100486.38;5014085;28;20033;-77
2022/12/21 05:40:02;;;;;;;182.68;51.25;;;7.40;99.90;;;5.87;100.00;100486.53;5014399;28;20034;-76
2022/12/21 05:42:28;;;;;;;191.63;50.92;;;7.40;99.90;;;5.86;100.00;100490.91;5033376;28;20053;-76
2022/12/21 05:44:54;;;;;;;197.40;51.90;;;7.40;99.90;;;5.86;100.00;100490.91;5014873;28;20116;-76
2022/12/21 05:47:20;;;;;;;185.20;51.70;;;7.30;99.90;;;5.86;100.00;100487.44;5013117;28;20030;-76
2022/12/21 05:49:46;;;;;;;192.95;51.60;;;7.30;99.90;;;5.88;100.00;100486.47;5035670;28;20040;-76
2022/12/21 05:52:14;;;;;;;178.68;52.03;;;7.40;99.90;;;5.88;100.00;100494.31;5015807;28;20116;-77
2022/12/21 05:54:40;;;;;;;194.32;53.90;;;7.40;99.90;;;5.84;100.00;100484.88;5016404;28;20611;-76
2022/12/21 05:57:05;;;;;;;219.07;56.50;;;7.30;99.90;;;5.86;100.00;100493.50;5014989;28;20029;-76
2022/12/21 05:59:31;;;;;;;211.38;55.15;;;7.40;99.90;;;5.88;100.00;100494.31;5018247;28;20030;-76
2022/12/21 06:01:57;;;;;;;200.82;53.85;;;7.30;99.90;;;5.87;100.00;100496.97;5030819;28;20116;-76
2022/12/21 06:04:23;;;;;;;199.40;53.65;;;7.30;99.90;;;5.88;100.00;100501.31;5017842;28;20112;-76
2022/12/21 06:06:48;;;;;;;204.10;52.67;;;7.40;99.90;;;5.91;100.00;100495.97;5017338;28;20096;-75
2022/12/21 06:09:14;;;;;;;214.68;53.47;;;7.40;99.90;;;5.91;100.00;100491.59;5018070;28;20573;-77
2022/12/21 06:11:47;;;;;;;201.07;52.00;;;7.40;99.90;;;5.89;100.00;100492.56;5013323;28;20454;-76
2022/12/21 06:14:13;;;;;;;153.00;47.85;;;7.40;99.90;;;5.93;100.00;100491.56;5017790;28;20422;-76
2022/12/21 06:16:39;;;;;;;172.93;50.83;;;7.40;99.90;;;5.95;100.00;100484.56;5017432;28;20043;-76
2022/12/21 06:19:05;;;;;;;158.75;48.35;;;7.40;99.90;;;5.91;100.00;100478.53;5016006;28;20029;-76
2022/12/21 06:21:33;;;;;;;152.32;47.30;;;7.40;99.90;;;5.90;100.00;100487.28;5016650;28;20045;-76
2022/12/21 06:23:59;;;;;;;144.27;47.33;;;7.40;99.90;;;5.89;100.00;100480.34;5000263;28;20057;-76
2022/12/21 06:26:25;;;;;;;150.52;47.53;;;7.40;99.90;;;5.89;100.00;100490.78;5001444;28;20113;-76
2022/12/21 06:28:53;;;;;;;147.45;46.17;;;7.40;99.90;;;5.90;100.00;100502.97;5016595;28;20036;-76
2022/12/21 06:31:21;;;;;;;149.32;46.90;;;7.40;99.90;;;5.93;100.00;100500.25;5015980;28;20040;-76
2022/12/21 06:33:47;;;;;;;153.63;46.90;;;7.40;99.90;;;5.94;100.00;100496.78;5013815;28;20494;-76
2022/12/21 06:36:16;;;;;;;144.20;46.92;;;7.40;99.90;;;5.93;100.00;100508.09;5014664;28;20048;-76
2022/12/21 06:38:41;;;;;;;140.20;45.78;;;7.40;99.90;;;5.90;100.00;100500.34;5016859;28;20034;-76
2022/12/21 06:41:13;;;;;;;145.68;45.35;;;7.40;99.90;;;5.91;100.00;100499.44;4998214;28;20122;-76
2022/12/21 06:43:43;;;;;;;150.75;45.25;;;7.40;99.90;;;5.94;100.00;100501.13;5032828;28;20486;-76
2022/12/21 06:46:13;;;;;;;154.70;47.10;;;7.40;99.90;;;5.98;100.00;100510.59;5013817;28;20034;-76
2022/12/21 06:48:39;;;;;;;139.32;43.90;;;7.40;99.90;;;5.97;100.00;100505.44;5012160;28;20037;-76
2022/12/21 06:51:18;;;;;;;147.90;45.58;;;7.40;99.90;;;5.96;100.00;100509.78;5033569;28;20145;-76
2022/12/21 06:53:47;;;;;;;136.57;44.92;;;7.40;99.90;;;5.97;100.00;100510.66;5014885;28;20069;-76
2022/12/21 06:56:22;;;;;;;153.65;47.85;;;7.40;99.90;;;5.95;100.00;100519.38;5001278;28;20034;-76
2022/12/21 06:58:50;;;;;;;134.07;45.92;;;7.40;99.90;;;5.96;100.00;100509.78;5009978;28;20795;-76
2022/12/21 07:01:22;;;;;;;137.82;44.38;;;7.40;99.90;;;5.94;100.00;100512.47;5033595;28;20042;-76
2022/12/21 07:03:48;;;;;;;155.10;45.80;;;7.40;99.90;;;5.94;100.00;100514.19;5018315;28;20494;-76
2022/12/21 07:06:17;;;;;;;154.45;44.80;;;7.40;99.90;;;5.94;100.00;100509.84;5014406;28;20400;-76
2022/12/21 07:08:44;;;;;;;164.85;46.33;;;7.40;99.90;;;5.93;100.00;100510.69;5018356;28;20033;-76
2022/12/21 07:11:13;;;;;;;152.50;44.95;;;7.40;99.90;;;5.92;100.00;100511.63;5012421;28;20445;-76
2022/12/21 07:13:42;;;;;;;160.77;46.33;;;7.40;99.90;;;5.92;100.00;100508.16;5014697;28;20040;-76
2022/12/21 07:16:09;;;;;;;164.15;46.25;;;7.40;99.90;;;5.94;100.00;100525.53;5017162;28;20099;-76
2022/12/21 07:18:36;;;;;;;160.93;46.10;;;7.40;99.90;;;5.94;100.00;100522.91;5014863;28;20088;-76
2022/12/21 07:21:06;;;;;;;170.80;47.15;;;7.40;99.90;;;5.99;100.00;100527.16;5016118;28;20033;-76
2022/12/21 07:23:35;;;;;;;159.93;45.95;;;7.40;99.90;;;6.02;100.00;100527.03;5015133;28;20060;-76
2022/12/21 07:26:05;;;;;;;141.23;44.58;;;7.50;99.90;;;6.00;100.00;100523.63;5017373;28;20022;-76
2022/12/21 07:28:33;;;;;;;156.90;45.58;;;7.50;99.90;;;5.99;100.00;100527.16;5016801;28;20040;-75
2022/12/21 07:31:09;;;;;;;163.75;45.88;;;7.50;99.90;;;6.04;100.00;100533.94;5019186;28;20041;-76
2022/12/21 07:33:36;;;;;;;174.68;48.10;;;7.40;99.90;;;6.03;100.00;100531.38;5026854;28;20034;-76
2022/12/21 07:36:04;;;;;;;183.35;47.63;;;7.50;99.90;;;6.02;100.00;100532.28;5031230;28;20041;-76
2022/12/21 07:38:33;;;;;;;178.95;47.38;;;7.50;99.90;;;6.02;100.00;100538.34;5011750;28;20037;-76
2022/12/21 07:41:01;;;;;;;179.32;46.70;;;7.50;99.90;;;6.02;100.00;100538.34;5016568;28;20107;-76
2022/12/21 07:43:28;;;;;;;193.90;47.47;;;7.50;99.90;;;6.05;100.00;100543.50;5014047;28;20022;-76
2022/12/21 07:45:53;;;;;;;197.00;48.22;;;7.50;99.90;;;6.06;100.00;100546.97;5014792;28;20022;-75
2022/12/21 07:48:19;;;;;;;197.52;49.10;;;7.50;99.90;;;6.07;100.00;100548.66;5032128;28;20057;-76
2022/12/21 07:50:48;;;;;;;204.73;49.83;;;7.50;99.90;;;6.07;100.00;100553.88;5013371;28;20108;-76
2022/12/21 07:53:14;;;;;;;220.25;54.65;;;7.50;99.90;;;6.06;100.00;100549.56;5019156;28;20038;-77
2022/12/21 07:55:42;;;;;;;217.93;55.55;;;7.50;99.90;;;6.05;100.00;100547.88;5014488;28;20065;-76
2022/12/21 07:58:09;;;;;;;230.93;56.53;;;7.50;99.90;;;6.09;100.00;100557.31;5012730;28;20033;-76
2022/12/21 08:00:37;;;;;;;264.90;62.63;;;7.50;99.90;;;6.09;100.00;100557.31;5030879;28;20043;-76
2022/12/21 08:03:04;;;;;;;273.50;70.70;;;7.50;99.90;;;6.10;100.00;100551.19;5015072;28;20030;-76
2022/12/21 08:05:30;;;;;;;271.00;70.28;;;7.50;99.90;;;6.08;100.00;100553.00;5016557;28;20034;-76
2022/12/21 08:08:03;;;;;;;294.98;76.40;;;7.50;99.90;;;6.09;100.00;100560.81;5016699;28;20053;-76
2022/12/21 08:10:30;;;;;;;300.23;77.38;;;7.50;99.90;;;6.09;100.00;100568.66;5017407;28;20057;-75
2022/12/21 08:12:56;;;;;;;329.23;85.30;;;7.60;99.90;;;6.09;100.00;100563.41;5036004;28;20021;-76
2022/12/21 08:15:21;;;;;;;319.30;87.03;;;7.60;99.90;;;6.09;100.00;100565.16;5021066;28;20041;-76
2022/12/21 08:17:49;;;;;;;324.27;90.82;;;7.50;99.90;;;6.09;100.00;100559.91;5018522;28;20017;-76
2022/12/21 08:20:17;;;;;;;326.88;85.35;;;7.60;99.90;;;6.12;100.00;100555.47;5018076;28;20029;-76
2022/12/21 08:22:43;;;;;;;327.70;86.13;;;7.60;99.90;;;6.14;100.00;100561.50;5018131;28;20041;-76
2022/12/21 08:25:10;;;;;;;307.98;84.75;;;7.60;99.90;;;6.14;100.00;100558.88;5022453;28;20025;-76
2022/12/21 08:27:36;;;;;;;336.17;87.13;;;7.60;99.90;;;6.18;100.00;100561.41;5023590;28;20432;-76
2022/12/21 08:30:02;;;;;;;303.80;79.28;;;7.60;99.90;;;6.18;100.00;100553.56;5017315;28;20137;-76
2022/12/21 08:32:31;;;;;;;262.42;65.05;;;7.60;99.90;;;6.19;100.00;100547.44;5018993;28;20095;-76
2022/12/21 08:34:57;;;;;;;273.17;59.20;;;7.60;99.90;;;6.23;100.00;100559.50;5017555;28;20418;-76
2022/12/21 08:37:23;;;;;;;273.65;60.15;;;7.70;99.90;;;6.26;100.00;100556.78;5032242;28;20049;-76
2022/12/21 08:39:49;;;;;;;243.43;54.97;;;7.70;99.90;;;6.28;100.00;100558.44;5020830;28;20498;-76
2022/12/21 08:42:14;;;;;;;242.85;54.58;;;7.70;99.90;;;6.31;100.00;100555.75;5017792;28;20029;-76
2022/12/21 08:44:40;;;;;;;250.60;52.10;;;7.70;99.90;;;6.31;100.00;100566.22;5004659;28;20037;-76
2022/12/21 08:47:06;;;;;;;246.77;50.92;;;7.70;99.90;;;6.33;100.00;100572.25;5018504;28;20029;-76
2022/12/21 08:49:35;;;;;;;236.10;49.05;;;7.70;99.90;;;6.33;100.00;100559.19;5001041;28;20518;-76
2022/12/21 08:52:00;;;;;;;234.15;47.85;;;7.80;99.90;;;6.34;100.00;100557.41;5018213;28;20065;-76
2022/12/21 08:54:26;;;;;;;239.82;49.50;;;7.80;99.90;;;6.39;100.00;100562.50;5016947;28;20129;-76
2022/12/21 08:56:52;;;;;;;233.50;47.90;;;7.80;99.90;;;6.42;100.00;100572.88;5014315;28;20026;-76
2022/12/21 08:59:18;;;;;;;231.85;48.05;;;7.80;99.90;;;6.40;100.00;100569.44;5016451;28;20151;-76
2022/12/21 09:01:44;;;;;;;228.48;46.28;;;7.80;99.90;;;6.39;100.00;100565.09;5032383;28;20783;-76
2022/12/21 09:04:12;;;;;;;230.90;47.00;;;7.80;99.90;;;6.41;100.00;100569.38;5019791;28;20064;-76
2022/12/21 09:06:38;;;;;;;239.30;46.72;;;7.90;99.90;;;6.44;100.00;100565.84;5017872;28;20025;-76
2022/12/21 09:09:08;;;;;;;222.25;44.95;;;7.90;99.90;;;6.40;100.00;100561.59;5014304;28;20049;-76
2022/12/21 09:11:34;;;;;;;224.18;44.50;;;7.90;99.90;;;6.43;100.00;100569.34;5016278;28;20037;-76
2022/12/21 09:14:00;;;;;;;228.90;45.47;;;7.90;99.90;;;6.47;100.00;100574.41;5015978;28;20041;-76
2022/12/21 09:16:26;;;;;;;240.27;45.65;;;7.90;99.90;;;6.54;100.00;100588.16;5017094;28;20131;-76
2022/12/21 09:18:55;;;;;;;244.25;46.33;;;7.90;99.90;;;6.54;100.00;100583.81;5004009;28;20033;-77
2022/12/21 09:21:24;;;;;;;255.95;46.55;;;7.90;99.90;;;6.55;100.00;100585.50;5017954;28;20033;-76
2022/12/21 09:23:53;;;;;;;240.88;44.35;;;7.90;99.90;;;6.55;100.00;100584.66;5016508;28;20034;-76
2022/12/21 09:26:21;;;;;;;260.92;48.03;;;7.90;99.90;;;6.55;100.00;100590.72;5037643;28;20038;-76
2022/12/21 09:28:49;;;;;;;280.95;52.55;;;7.90;99.90;;;6.55;100.00;100595.13;5000324;28;20044;-76
2022/12/21 09:31:20;;;;;;;293.15;59.45;;;8.00;99.90;;;6.56;100.00;100599.41;5019675;28;20494;-76
2022/12/21 09:33:47;;;;;;;312.42;66.88;;;8.00;99.90;;;6.58;100.00;100602.84;5030394;28;20033;-77
2022/12/21 09:36:15;;;;;;;340.00;72.25;;;8.00;99.90;;;6.63;100.00;100607.94;5016723;28;20457;-77
2022/12/21 09:38:44;;;;;;;311.77;63.83;;;8.00;99.90;;;6.64;100.00;100607.88;5018387;28;20046;-76
2022/12/21 09:41:45;;;;;;;330.73;65.00;;;8.00;99.90;;;6.66;100.00;100597.38;5018675;28;20080;-76
2022/12/21 09:44:41;;;;;;;332.48;67.35;;;8.00;99.90;;;6.65;100.00;100598.28;5018147;28;20014;-77
2022/12/21 09:47:16;;;;;;;335.35;64.18;;;8.00;99.90;;;6.65;100.00;100593.03;5016538;28;20030;-76
2022/12/21 09:50:18;;;;;;;312.60;61.70;;;8.10;99.90;;;6.68;100.00;100593.81;5015475;28;20029;-76
2022/12/21 09:53:06;;;;;;;324.10;62.55;;;8.10;99.90;;;6.72;100.00;100597.19;5018390;28;20536;-76
2022/12/21 09:55:43;;;;;;;313.75;56.88;;;8.10;99.90;;;6.73;100.00;100594.50;5028835;28;20384;-76
2022/12/21 09:58:17;;;;;;;329.48;58.67;;;8.10;99.90;;;6.77;100.00;100595.25;5018886;28;20121;-77
2022/12/21 10:00:48;;;;;;;308.25;56.08;;;8.20;99.90;;;6.81;100.00;100596.03;5016004;28;20128;-76
2022/12/21 10:03:52;;;;;;;326.15;54.95;;;8.20;99.90;;;6.80;100.00;100589.06;4998351;28;20490;-76
2022/12/21 10:06:56;;;;;;;307.55;52.58;;;8.20;99.90;;;6.82;100.00;100579.41;5033308;28;20387;-77
2022/12/21 10:09:58;;;;;;;336.60;52.15;;;8.20;99.90;;;6.82;100.00;100582.88;5015572;28;20033;-76
2022/12/21 10:13:14;;;;;;;322.98;57.13;;;8.20;99.90;;;6.84;100.00;100590.69;5029502;28;20180;-76
2022/12/21 10:15:57;;;;;;;342.40;56.88;;;8.20;99.90;;;6.82;100.00;100587.25;5033060;28;20041;-77
2022/12/21 10:19:14;;;;;;;336.67;57.60;;;8.20;99.90;;;6.85;100.00;100574.09;5017118;28;20041;-77
2022/12/21 10:22:34;;;;;;;339.77;56.60;;;8.20;99.90;;;6.87;100.00;100580.09;5014500;28;20022;-76
2022/12/21 10:25:14;;;;;;;378.23;54.72;;;8.30;99.90;;;6.90;100.00;100564.31;4929399;29;20028;-77
2022/12/21 10:27:47;;;;;;;335.58;51.60;;;8.30;99.90;;;6.96;100.00;100559.72;4914214;29;20036;-76
2022/12/21 10:30:16;;;;;;;353.35;50.47;;;8.30;99.90;;;7.04;100.00;100556.84;4974002;28;20730;-76
2022/12/21 10:32:48;;;;;;;366.10;52.70;;;8.40;99.90;;;7.12;100.00;100554.78;5009181;28;20030;-76